Time;durP1;ratioP1;P1;durP2;ratioP2;P2;SDS_P1;SDS_P2;PMS_P1;PMS_P2;Temp;Humidity;BMP_temperature;BMP_pressure;BME280_temperature;BME280_humidity;BME280_pressure;Samples;Min_cycle;Max_cycle;Signal;HPM_P1;HPM_P2
2022/03/22 00:00:28;;;;;;;10.90;9.13;;;;;;;;;;5080525;28;20470;-89
2022/03/22 00:02:54;;;;;;;11.17;8.17;;;;;;;;;;5095705;28;20408;-89
2022/03/22 00:05:20;;;;;;;11.20;8.80;;;;;;;;;;5078113;28;20424;-90
2022/03/22 00:07:46;;;;;;;10.53;8.07;;;;;;;;;;5076842;28;20415;-90
2022/03/22 00:10:12;;;;;;;13.00;9.30;;;;;;;;;;5077491;28;20415;-89
2022/03/22 00:12:38;;;;;;;9.77;8.50;;;;;;;;;;5077328;28;20405;-91
2022/03/22 00:15:04;;;;;;;8.63;7.47;;;;;;;;;;5077339;28;20457;-88
2022/03/22 00:17:30;;;;;;;10.97;8.40;;;;;;;;;;5077169;28;20407;-90
2022/03/22 00:19:56;;;;;;;10.50;7.43;;;;;;;;;;5077128;28;20514;-90
2022/03/22 00:22:24;;;;;;;12.10;8.13;;;;;;;;;;5077157;28;20404;-90
2022/03/22 00:24:50;;;;;;;10.30;7.30;;;;;;;;;;5077121;28;20783;-89
2022/03/22 00:27:16;;;;;;;9.57;7.57;;;;;;;;;;5077159;28;20508;-90
2022/03/22 00:29:42;;;;;;;13.23;8.13;;;;;;;;;;5092580;28;20483;-92
2022/03/22 00:32:08;;;;;;;13.83;8.20;;;;;;;;;;5077042;28;20442;-91
2022/03/22 00:34:34;;;;;;;10.17;8.57;;;;;;;;;;5092591;28;20463;-90
2022/03/22 00:37:00;;;;;;;8.80;7.10;;;;;;;;;;5076327;28;20407;-90
2022/03/22 00:39:26;;;;;;;9.30;7.30;;;;;;;;;;5076045;28;20471;-91
2022/03/22 00:41:53;;;;;;;11.10;8.07;;;;;;;;;;5076670;28;20461;-92
2022/03/22 00:44:19;;;;;;;11.53;8.33;;;;;;;;;;5076939;28;20411;-90
2022/03/22 00:46:45;;;;;;;10.07;8.10;;;;;;;;;;5076813;28;20475;-89
2022/03/22 00:49:14;;;;;;;11.57;6.87;;;;;;;;;;5092260;28;20430;-89
2022/03/22 00:51:39;;;;;;;8.53;7.53;;;;;;;;;;5076062;28;20495;-89
2022/03/22 00:54:08;;;;;;;8.90;7.30;;;;;;;;;;5092030;28;20867;-90
2022/03/22 00:56:34;;;;;;;11.13;8.03;;;;;;;;;;5076434;28;20483;-90
2022/03/22 01:01:45;;;;;;;11.17;7.23;;;;;;;;;;5076564;28;20489;-90
2022/03/22 01:04:11;;;;;;;12.53;8.57;;;;;;;;;;5076234;28;20822;-89
2022/03/22 01:06:37;;;;;;;7.17;6.13;;;;;;;;;;5091605;28;20888;-89
2022/03/22 01:09:03;;;;;;;12.73;9.00;;;;;;;;;;5076278;28;20411;-90
2022/03/22 01:11:29;;;;;;;9.23;7.10;;;;;;;;;;5076331;28;20408;-89
2022/03/22 01:13:56;;;;;;;10.10;7.87;;;;;;;;;;5076248;28;20510;-89
2022/03/22 01:16:21;;;;;;;9.97;8.03;;;;;;;;;;5076158;28;20405;-91
2022/03/22 01:18:47;;;;;;;11.17;7.57;;;;;;;;;;5091764;28;20474;-89
2022/03/22 01:21:13;;;;;;;10.87;8.67;;;;;;;;;;5091482;28;20476;-90
2022/03/22 01:23:39;;;;;;;10.80;8.13;;;;;;;;;;5092257;28;20964;-91
2022/03/22 01:26:06;;;;;;;10.77;8.20;;;;;;;;;;5076251;28;20521;-90
2022/03/22 01:28:35;;;;;;;10.30;7.40;;;;;;;;;;5092005;28;20564;-90
2022/03/22 01:31:01;;;;;;;9.10;7.00;;;;;;;;;;5091902;28;20407;-90
2022/03/22 01:33:27;;;;;;;11.57;8.20;;;;;;;;;;5091863;28;20825;-91
2022/03/22 01:35:53;;;;;;;10.33;8.63;;;;;;;;;;5076114;28;20424;-91
2022/03/22 01:38:19;;;;;;;13.03;8.37;;;;;;;;;;5075907;28;20465;-91
2022/03/22 01:40:45;;;;;;;10.83;8.07;;;;;;;;;;5091741;28;20418;-91
2022/03/22 01:43:11;;;;;;;12.03;9.07;;;;;;;;;;5091504;28;20425;-91
2022/03/22 01:45:38;;;;;;;12.53;8.60;;;;;;;;;;5091567;28;20482;-91
2022/03/22 01:48:05;;;;;;;9.70;7.90;;;;;;;;;;5075805;28;20406;-92
2022/03/22 01:50:31;;;;;;;10.03;7.33;;;;;;;;;;5075415;28;20404;-91
2022/03/22 01:52:58;;;;;;;9.83;7.40;;;;;;;;;;5090947;28;20918;-91
2022/03/22 01:55:25;;;;;;;10.60;8.60;;;;;;;;;;5075755;28;20494;-90
2022/03/22 01:57:57;;;;;;;9.93;7.60;;;;;;;;;;5091549;28;20454;-91
2022/03/22 02:00:23;;;;;;;10.80;7.30;;;;;;;;;;5091394;28;20443;-91
2022/03/22 02:05:52;;;;;;;11.30;7.87;;;;;;;;;;5075840;28;20411;-89
2022/03/22 02:08:19;;;;;;;10.97;7.60;;;;;;;;;;5076085;28;20388;-90
2022/03/22 02:10:45;;;;;;;9.67;8.40;;;;;;;;;;5075415;28;20412;-89
2022/03/22 02:13:11;;;;;;;13.33;9.17;;;;;;;;;;5074818;28;20447;-91
2022/03/22 02:15:37;;;;;;;12.73;7.10;;;;;;;;;;5090408;28;20411;-91
2022/03/22 02:18:03;;;;;;;10.97;8.83;;;;;;;;;;5074529;28;20462;-90
2022/03/22 02:20:29;;;;;;;10.50;8.10;;;;;;;;;;5091142;28;20420;-90
2022/03/22 02:22:58;;;;;;;9.47;7.20;;;;;;;;;;5074617;28;20503;-90
2022/03/22 02:25:25;;;;;;;11.60;8.00;;;;;;;;;;5074742;28;20411;-91
2022/03/22 02:27:54;;;;;;;10.20;7.97;;;;;;;;;;5074676;28;20485;-92
2022/03/22 02:30:20;;;;;;;11.70;8.50;;;;;;;;;;5076422;28;20403;-88
2022/03/22 02:32:54;;;;;;;12.50;9.60;;;;;;;;;;5076110;28;20403;-88
2022/03/22 02:35:20;;;;;;;12.63;7.97;;;;;;;;;;5074387;28;20414;-89
2022/03/22 02:37:46;;;;;;;12.90;9.00;;;;;;;;;;5073950;28;20455;-87
2022/03/22 02:40:13;;;;;;;17.93;8.00;;;;;;;;;;5074117;28;20430;-88
2022/03/22 02:42:49;;;;;;;13.10;7.83;;;;;;;;;;5074052;28;20924;-89
2022/03/22 02:45:15;;;;;;;12.63;8.27;;;;;;;;;;5089802;28;20424;-88
2022/03/22 02:47:42;;;;;;;12.00;7.70;;;;;;;;;;5074346;28;20407;-88
2022/03/22 02:50:08;;;;;;;10.30;7.97;;;;;;;;;;5074262;28;20412;-89
2022/03/22 02:52:35;;;;;;;9.90;7.53;;;;;;;;;;5073560;28;20872;-88
2022/03/22 02:55:01;;;;;;;11.37;8.50;;;;;;;;;;5089777;28;20427;-89
2022/03/22 02:57:27;;;;;;;10.43;8.90;;;;;;;;;;5075237;28;20432;-88
2022/03/22 02:59:53;;;;;;;10.90;8.27;;;;;;;;;;5075659;28;20430;-89
2022/03/22 03:02:19;;;;;;;12.50;8.30;;;;;;;;;;5074996;28;20411;-88
2022/03/22 03:04:45;;;;;;;10.20;7.37;;;;;;;;;;5074727;28;20548;-88
2022/03/22 03:07:11;;;;;;;10.80;8.17;;;;;;;;;;5073576;28;20396;-88
2022/03/22 03:09:38;;;;;;;10.57;9.30;;;;;;;;;;5074275;28;20411;-89
2022/03/22 03:12:04;;;;;;;13.10;8.20;;;;;;;;;;5077976;28;20404;-89
2022/03/22 03:14:39;;;;;;;9.93;7.67;;;;;;;;;;5077559;28;20414;-90
2022/03/22 03:17:06;;;;;;;10.10;8.83;;;;;;;;;;5075283;28;20449;-89
2022/03/22 03:19:32;;;;;;;13.00;9.90;;;;;;;;;;5074279;28;20836;-87
2022/03/22 03:21:58;;;;;;;11.00;8.83;;;;;;;;;;5074024;28;20460;-90
2022/03/22 03:24:24;;;;;;;15.00;9.73;;;;;;;;;;5074451;28;20412;-90
2022/03/22 03:26:50;;;;;;;11.10;9.93;;;;;;;;;;5074543;28;20766;-89
2022/03/22 03:29:16;;;;;;;11.23;9.67;;;;;;;;;;5073643;28;20485;-88
2022/03/22 03:31:42;;;;;;;11.67;9.13;;;;;;;;;;5089304;28;20510;-89
2022/03/22 03:34:08;;;;;;;12.30;8.70;;;;;;;;;;5089250;28;20779;-89
2022/03/22 03:36:34;;;;;;;10.30;8.70;;;;;;;;;;5073035;28;20419;-88
2022/03/22 03:39:03;;;;;;;12.07;9.10;;;;;;;;;;5073693;28;20877;-89
2022/03/22 03:47:05;;;;;;;10.10;8.00;;;;;;;;;;5073877;28;20433;-88
2022/03/22 03:49:51;;;;;;;11.60;8.67;;;;;;;;;;5073406;28;20403;-88
2022/03/22 03:52:18;;;;;;;12.83;8.57;;;;;;;;;;5073779;28;20408;-90
2022/03/22 03:54:44;;;;;;;14.83;8.90;;;;;;;;;;5077573;28;20890;-91
2022/03/22 03:57:10;;;;;;;11.50;8.90;;;;;;;;;;5092954;28;20419;-91
2022/03/22 03:59:37;;;;;;;13.50;8.93;;;;;;;;;;5076096;28;20485;-91
2022/03/22 04:02:04;;;;;;;12.73;8.90;;;;;;;;;;5076253;28;20469;-92
2022/03/22 04:04:29;;;;;;;14.77;9.10;;;;;;;;;;5090552;28;20506;-90
2022/03/22 04:06:55;;;;;;;11.50;8.60;;;;;;;;;;5073506;28;20820;-87
2022/03/22 04:09:21;;;;;;;14.87;10.30;;;;;;;;;;5073679;28;20435;-90
2022/03/22 04:11:47;;;;;;;11.03;8.10;;;;;;;;;;5073606;28;20483;-84
2022/03/22 04:14:14;;;;;;;12.67;9.20;;;;;;;;;;5074962;28;20430;-90
2022/03/22 04:16:40;;;;;;;11.77;8.43;;;;;;;;;;5077229;28;20449;-90
2022/03/22 04:19:07;;;;;;;11.23;9.67;;;;;;;;;;5077065;28;20557;-91
2022/03/22 04:21:34;;;;;;;12.73;8.27;;;;;;;;;;5076846;28;20418;-90
2022/03/22 04:24:01;;;;;;;9.93;8.20;;;;;;;;;;5077017;28;20407;-90
2022/03/22 04:26:30;;;;;;;15.43;9.60;;;;;;;;;;5077175;28;20407;-91
2022/03/22 04:34:25;;;;;;;11.10;8.80;;;;;;;;;;5080777;28;20475;-91
2022/03/22 04:36:57;;;;;;;12.17;9.33;;;;;;;;;;5079846;28;20907;-91
2022/03/22 04:39:23;;;;;;;13.73;9.50;;;;;;;;;;5078967;28;20458;-91
2022/03/22 04:41:50;;;;;;;12.70;8.57;;;;;;;;;;5080380;28;20407;-90
2022/03/22 04:44:19;;;;;;;16.20;10.63;;;;;;;;;;5083236;28;20412;-91
2022/03/22 04:46:45;;;;;;;11.90;9.00;;;;;;;;;;5078724;28;20411;-90
2022/03/22 04:49:11;;;;;;;10.50;8.80;;;;;;;;;;5093927;28;20924;-91
2022/03/22 04:57:07;;;;;;;11.87;9.60;;;;;;;;;;5078300;28;20458;-91
2022/03/22 04:59:33;;;;;;;10.60;9.40;;;;;;;;;;5078818;28;20463;-91
2022/03/22 05:01:59;;;;;;;11.80;10.47;;;;;;;;;;5077950;28;20400;-90
2022/03/22 05:04:25;;;;;;;13.67;9.23;;;;;;;;;;5076503;28;20411;-91
2022/03/22 05:06:52;;;;;;;14.33;9.90;;;;;;;;;;5093859;28;20407;-91
2022/03/22 05:09:18;;;;;;;10.43;8.70;;;;;;;;;;5094313;28;20414;-91
2022/03/22 05:11:44;;;;;;;10.97;8.63;;;;;;;;;;5077214;28;20503;-90
2022/03/22 05:14:10;;;;;;;13.80;10.57;;;;;;;;;;5076326;28;20435;-90
2022/03/22 05:16:36;;;;;;;14.60;9.90;;;;;;;;;;5075627;28;20417;-91
2022/03/22 05:19:04;;;;;;;12.10;10.30;;;;;;;;;;5091983;28;20474;-90
2022/03/22 05:21:30;;;;;;;15.17;10.63;;;;;;;;;;5075192;28;20419;-91
2022/03/22 05:23:59;;;;;;;13.83;10.43;;;;;;;;;;5093477;28;20407;-90
2022/03/22 05:26:28;;;;;;;12.20;8.60;;;;;;;;;;5097930;28;20454;-90
2022/03/22 05:28:54;;;;;;;11.80;8.93;;;;;;;;;;5099089;28;20467;-90
2022/03/22 05:31:21;;;;;;;14.50;9.73;;;;;;;;;;5115793;28;20415;-90
2022/03/22 05:33:47;;;;;;;12.33;9.90;;;;;;;;;;5091397;28;20465;-91
2022/03/22 05:36:13;;;;;;;13.57;10.70;;;;;;;;;;5092266;28;20446;-90
2022/03/22 05:38:39;;;;;;;17.17;9.80;;;;;;;;;;5074966;28;20451;-91
2022/03/22 05:41:06;;;;;;;14.57;8.93;;;;;;;;;;5091941;28;20940;-89
2022/03/22 05:43:32;;;;;;;10.83;8.77;;;;;;;;;;5091886;28;20441;-89
2022/03/22 05:45:59;;;;;;;12.27;9.80;;;;;;;;;;5091714;28;20420;-89
2022/03/22 05:48:26;;;;;;;12.03;8.70;;;;;;;;;;5091634;28;20451;-90
2022/03/22 05:50:52;;;;;;;10.83;8.23;;;;;;;;;;5091813;28;20403;-90
2022/03/22 05:53:17;;;;;;;13.33;10.17;;;;;;;;;;5094351;28;20443;-91
2022/03/22 05:55:43;;;;;;;14.27;9.90;;;;;;;;;;5076655;28;20418;-91
2022/03/22 05:58:10;;;;;;;10.47;8.07;;;;;;;;;;5093411;28;20466;-91
2022/03/22 06:00:36;;;;;;;13.10;9.73;;;;;;;;;;5076361;28;20403;-91
2022/03/22 06:03:02;;;;;;;12.10;9.03;;;;;;;;;;5076153;28;20475;-90
2022/03/22 06:05:28;;;;;;;12.43;9.13;;;;;;;;;;5091533;28;20464;-91
2022/03/22 06:07:55;;;;;;;16.77;9.70;;;;;;;;;;5075481;28;20408;-90
2022/03/22 06:10:21;;;;;;;15.30;10.07;;;;;;;;;;5075529;28;20415;-90
2022/03/22 06:12:57;;;;;;;11.57;8.87;;;;;;;;;;5075721;28;20779;-86
2022/03/22 06:15:25;;;;;;;15.63;10.10;;;;;;;;;;5075316;28;20408;-91
2022/03/22 06:17:56;;;;;;;14.03;9.90;;;;;;;;;;5073707;28;20447;-89
2022/03/22 06:20:23;;;;;;;11.73;9.10;;;;;;;;;;5074767;28;20441;-90
2022/03/22 06:22:50;;;;;;;16.80;9.23;;;;;;;;;;5090369;28;20966;-89
2022/03/22 06:25:17;;;;;;;15.17;10.10;;;;;;;;;;5090776;28;20426;-90
2022/03/22 06:27:44;;;;;;;12.77;10.40;;;;;;;;;;5074690;28;20418;-88
2022/03/22 06:30:11;;;;;;;13.27;9.40;;;;;;;;;;5073728;28;20434;-88
2022/03/22 06:33:03;;;;;;;15.57;10.20;;;;;;;;;;5074919;28;20404;-91
2022/03/22 06:35:29;;;;;;;13.97;10.50;;;;;;;;;;5071871;28;20426;-88
2022/03/22 06:37:56;;;;;;;11.40;8.00;;;;;;;;;;5074741;28;20459;-88
2022/03/22 06:40:23;;;;;;;14.27;10.03;;;;;;;;;;5090539;28;20431;-90
2022/03/22 06:42:49;;;;;;;10.90;8.57;;;;;;;;;;5073588;28;20505;-90
2022/03/22 06:45:16;;;;;;;11.53;9.83;;;;;;;;;;5075216;28;20500;-91
2022/03/22 06:47:43;;;;;;;12.80;9.93;;;;;;;;;;5090781;28;20937;-89
2022/03/22 06:50:10;;;;;;;15.30;9.50;;;;;;;;;;5074683;28;20421;-90
2022/03/22 06:52:36;;;;;;;14.47;10.00;;;;;;;;;;5074675;28;20494;-91
2022/03/22 06:55:03;;;;;;;15.60;9.90;;;;;;;;;;5074890;28;20410;-91
2022/03/22 06:57:31;;;;;;;12.83;10.43;;;;;;;;;;5090457;28;20478;-91
2022/03/22 06:59:57;;;;;;;17.20;10.43;;;;;;;;;;5073951;28;20475;-89
2022/03/22 07:02:23;;;;;;;13.73;9.70;;;;;;;;;;5073425;28;20418;-92
2022/03/22 07:04:49;;;;;;;11.30;8.70;;;;;;;;;;5090244;28;20434;-90
2022/03/22 07:07:15;;;;;;;15.17;11.00;;;;;;;;;;5090348;28;20421;-90
2022/03/22 07:09:42;;;;;;;13.67;10.57;;;;;;;;;;5073429;28;20980;-90
2022/03/22 07:12:08;;;;;;;12.43;9.30;;;;;;;;;;5073246;28;20501;-90
2022/03/22 07:14:36;;;;;;;13.80;11.03;;;;;;;;;;5090180;28;20423;-92
2022/03/22 07:17:01;;;;;;;12.80;10.13;;;;;;;;;;5073352;28;20425;-92
2022/03/22 07:19:28;;;;;;;13.60;10.60;;;;;;;;;;5073207;28;20471;-90
2022/03/22 07:21:57;;;;;;;14.90;11.40;;;;;;;;;;5072976;28;20924;-90
2022/03/22 07:24:23;;;;;;;14.70;10.77;;;;;;;;;;5074615;28;20495;-90
2022/03/22 07:26:49;;;;;;;12.57;10.00;;;;;;;;;;5075054;28;20456;-87
2022/03/22 07:29:15;;;;;;;14.67;10.63;;;;;;;;;;5073853;28;20879;-89
2022/03/22 07:31:41;;;;;;;11.47;10.00;;;;;;;;;;5072590;28;20775;-89
2022/03/22 07:34:08;;;;;;;12.60;11.07;;;;;;;;;;5074124;28;20457;-88
2022/03/22 07:36:37;;;;;;;11.80;10.43;;;;;;;;;;5073803;28;20422;-91
2022/03/22 07:39:10;;;;;;;15.37;11.97;;;;;;;;;;5072497;28;21016;-89
2022/03/22 07:41:37;;;;;;;14.37;10.77;;;;;;;;;;5073205;28;20930;-91
2022/03/22 07:44:06;;;;;;;13.57;11.50;;;;;;;;;;5073246;28;20418;-90
2022/03/22 07:46:36;;;;;;;13.83;11.63;;;;;;;;;;5073046;28;20412;-91
2022/03/22 07:54:32;;;;;;;12.63;10.70;;;;;;;;;;5077875;28;20409;-90
2022/03/22 07:56:58;;;;;;;12.97;10.80;;;;;;;;;;5076146;28;20769;-89
2022/03/22 07:59:25;;;;;;;13.30;11.27;;;;;;;;;;5077767;28;20493;-91
2022/03/22 08:01:51;;;;;;;13.30;11.70;;;;;;;;;;5077385;28;20472;-91
2022/03/22 08:04:18;;;;;;;13.00;11.53;;;;;;;;;;5078474;28;20942;-90
2022/03/22 08:06:44;;;;;;;13.67;12.20;;;;;;;;;;5076347;28;20927;-89
2022/03/22 08:09:10;;;;;;;14.93;12.23;;;;;;;;;;5075963;28;20965;-90
2022/03/22 08:11:36;;;;;;;13.13;11.87;;;;;;;;;;5076637;28;20408;-91
2022/03/22 08:14:03;;;;;;;14.27;12.77;;;;;;;;;;5076422;28;20422;-90
2022/03/22 08:16:29;;;;;;;16.60;11.37;;;;;;;;;;5076172;28;20402;-90
2022/03/22 08:18:55;;;;;;;14.07;12.07;;;;;;;;;;5076703;28;20811;-91
2022/03/22 08:21:21;;;;;;;15.83;11.63;;;;;;;;;;5077474;28;20417;-93
2022/03/22 08:23:47;;;;;;;13.77;12.30;;;;;;;;;;5077061;28;20423;-91
2022/03/22 08:26:14;;;;;;;12.60;11.30;;;;;;;;;;5076000;28;20414;-90
2022/03/22 08:28:40;;;;;;;14.00;11.27;;;;;;;;;;5075641;28;20509;-89
2022/03/22 08:31:07;;;;;;;13.17;11.87;;;;;;;;;;5075965;28;20405;-91
2022/03/22 08:33:33;;;;;;;14.73;13.20;;;;;;;;;;5075566;28;20416;-91
2022/03/22 08:35:59;;;;;;;12.27;11.07;;;;;;;;;;5075430;28;20774;-89
2022/03/22 08:38:24;;;;;;;14.47;12.70;;;;;;;;;;5079244;28;20475;-90
2022/03/22 08:40:51;;;;;;;12.93;11.40;;;;;;;;;;5085523;28;20814;-91
2022/03/22 08:43:19;;;;;;;12.53;11.00;;;;;;;;;;5076984;28;20482;-90
2022/03/22 08:45:45;;;;;;;15.40;12.00;;;;;;;;;;5077753;28;20779;-90
2022/03/22 08:48:12;;;;;;;14.67;13.17;;;;;;;;;;5076470;28;20985;-91
2022/03/22 08:50:39;;;;;;;14.00;12.80;;;;;;;;;;5075540;28;20898;-90
2022/03/22 08:53:06;;;;;;;15.10;13.70;;;;;;;;;;5075977;28;20987;-89
2022/03/22 08:55:32;;;;;;;14.60;13.20;;;;;;;;;;5075363;28;20411;-85
2022/03/22 08:58:05;;;;;;;15.60;13.90;;;;;;;;;;5075802;28;20418;-85
2022/03/22 09:00:31;;;;;;;16.93;13.83;;;;;;;;;;5074865;28;20907;-88
2022/03/22 09:02:57;;;;;;;15.87;14.10;;;;;;;;;;5075014;28;20783;-89
2022/03/22 09:08:07;;;;;;;15.00;13.40;;;;;;;;;;5097374;28;20402;-90
2022/03/22 09:10:34;;;;;;;13.87;12.40;;;;;;;;;;5095748;28;20898;-91
2022/03/22 09:13:01;;;;;;;14.80;13.30;;;;;;;;;;5098050;28;20898;-88
2022/03/22 09:15:28;;;;;;;14.23;12.83;;;;;;;;;;5096759;28;20426;-88
2022/03/22 09:17:57;;;;;;;13.63;12.30;;;;;;;;;;5095378;28;20407;-90
2022/03/22 09:20:24;;;;;;;15.37;13.60;;;;;;;;;;5096100;28;20931;-89
2022/03/22 09:22:51;;;;;;;14.80;13.30;;;;;;;;;;5095355;28;20779;-90
2022/03/22 09:25:18;;;;;;;14.73;13.30;;;;;;;;;;5095578;28;20910;-90
2022/03/22 09:27:44;;;;;;;14.67;13.07;;;;;;;;;;5095084;28;20426;-89
2022/03/22 09:30:11;;;;;;;17.50;14.23;;;;;;;;;;5097392;28;20468;-90
2022/03/22 09:32:38;;;;;;;13.53;12.17;;;;;;;;;;5095438;28;20421;-91
2022/03/22 09:35:10;;;;;;;14.03;12.27;;;;;;;;;;5081291;28;20819;-92
2022/03/22 09:37:36;;;;;;;16.67;13.20;;;;;;;;;;5075802;28;20412;-90
2022/03/22 09:40:02;;;;;;;16.23;12.43;;;;;;;;;;5074113;28;20554;-92
2022/03/22 09:42:29;;;;;;;13.40;12.20;;;;;;;;;;5077695;28;20412;-90
2022/03/22 09:44:56;;;;;;;13.53;12.33;;;;;;;;;;5075277;28;20812;-91
2022/03/22 09:47:22;;;;;;;14.87;12.90;;;;;;;;;;5072364;28;20427;-95
2022/03/22 09:49:51;;;;;;;14.93;13.57;;;;;;;;;;5074924;28;20751;-88
2022/03/22 09:52:17;;;;;;;13.70;12.60;;;;;;;;;;5074449;28;20804;-89
2022/03/22 09:54:43;;;;;;;14.47;13.17;;;;;;;;;;5073900;28;20759;-89
2022/03/22 09:57:09;;;;;;;15.27;13.73;;;;;;;;;;5074353;28;20503;-89
2022/03/22 09:59:36;;;;;;;14.17;12.90;;;;;;;;;;5074954;28;21184;-94
2022/03/22 10:02:05;;;;;;;13.80;12.60;;;;;;;;;;5078442;28;20407;-92
2022/03/22 10:04:39;;;;;;;15.33;13.83;;;;;;;;;;5077280;28;20503;-92
2022/03/22 10:07:06;;;;;;;13.77;12.13;;;;;;;;;;5076236;28;20573;-89
2022/03/22 10:09:33;;;;;;;15.47;13.70;;;;;;;;;;5078204;28;20628;-92
2022/03/22 10:12:00;;;;;;;14.87;13.27;;;;;;;;;;5097705;28;20422;-92
2022/03/22 10:14:38;;;;;;;15.03;13.70;;;;;;;;;;5086532;28;20428;-90
2022/03/22 10:17:20;;;;;;;14.33;12.83;;;;;;;;;;5080784;28;20407;-92
2022/03/22 10:19:50;;;;;;;14.00;12.50;;;;;;;;;;5078295;28;20830;-89
2022/03/22 10:22:17;;;;;;;13.07;11.93;;;;;;;;;;5077987;28;20419;-93
2022/03/22 10:24:43;;;;;;;13.90;12.50;;;;;;;;;;5077771;28;20453;-90
2022/03/22 10:27:22;;;;;;;13.37;12.27;;;;;;;;;;5075275;28;21218;-89
2022/03/22 10:29:48;;;;;;;13.60;12.30;;;;;;;;;;5072097;28;21001;-89
2022/03/22 10:32:16;;;;;;;12.87;11.50;;;;;;;;;;5073436;28;20415;-92
2022/03/22 10:34:42;;;;;;;14.17;12.73;;;;;;;;;;5071651;28;20450;-94
2022/03/22 10:37:08;;;;;;;12.67;11.33;;;;;;;;;;5072675;28;20408;-88
2022/03/22 10:39:41;;;;;;;13.73;12.50;;;;;;;;;;5073077;28;20500;-91
2022/03/22 10:42:08;;;;;;;14.27;12.27;;;;;;;;;;5071575;28;20407;-86
2022/03/22 10:44:35;;;;;;;13.27;12.07;;;;;;;;;;5077543;28;20403;-86
2022/03/22 10:47:02;;;;;;;13.40;12.17;;;;;;;;;;5080108;28;20407;-88
2022/03/22 10:49:32;;;;;;;13.53;11.60;;;;;;;;;;5080275;28;20407;-87
2022/03/22 10:51:57;;;;;;;12.83;11.50;;;;;;;;;;5079992;28;20396;-87
2022/03/22 10:54:24;;;;;;;13.20;11.73;;;;;;;;;;5079002;28;20499;-87
2022/03/22 10:56:51;;;;;;;13.50;12.30;;;;;;;;;;5071787;28;20900;-87
2022/03/22 10:59:18;;;;;;;13.70;12.40;;;;;;;;;;5073058;28;20482;-87
2022/03/22 11:01:45;;;;;;;13.83;12.53;;;;;;;;;;5071840;28;20900;-87
2022/03/22 11:04:12;;;;;;;14.57;13.17;;;;;;;;;;5071619;28;20929;-88
2022/03/22 11:06:39;;;;;;;14.50;13.27;;;;;;;;;;5071865;28;20422;-88
2022/03/22 11:09:05;;;;;;;12.77;11.57;;;;;;;;;;5073068;28;20423;-90
2022/03/22 11:11:32;;;;;;;13.00;11.80;;;;;;;;;;5073177;28;20887;-88
2022/03/22 11:13:59;;;;;;;12.73;11.43;;;;;;;;;;5073750;28;20414;-87
2022/03/22 11:16:28;;;;;;;13.33;11.70;;;;;;;;;;5079111;28;20442;-87
2022/03/22 11:18:55;;;;;;;15.43;12.23;;;;;;;;;;5072329;28;20520;-88
2022/03/22 11:21:21;;;;;;;14.10;12.70;;;;;;;;;;5073059;28;20412;-93
2022/03/22 11:23:48;;;;;;;14.60;12.67;;;;;;;;;;5072592;28;20418;-88
2022/03/22 11:26:17;;;;;;;12.20;11.10;;;;;;;;;;5072185;28;20461;-88
2022/03/22 11:28:51;;;;;;;13.77;12.43;;;;;;;;;;5073055;28;20470;-89
2022/03/22 11:31:20;;;;;;;12.30;11.20;;;;;;;;;;5072210;28;20415;-89
2022/03/22 11:36:49;;;;;;;13.03;11.87;;;;;;;;;;5073221;28;20457;-87
2022/03/22 11:39:16;;;;;;;14.17;12.87;;;;;;;;;;5072878;28;21027;-86
2022/03/22 11:44:34;;;;;;;11.77;10.70;;;;;;;;;;5072863;28;20914;-89
2022/03/22 11:47:12;;;;;;;12.07;11.03;;;;;;;;;;5071489;28;20907;-89
2022/03/22 11:49:48;;;;;;;12.60;11.47;;;;;;;;;;5072443;28;20399;-93
2022/03/22 11:52:18;;;;;;;12.57;11.37;;;;;;;;;;5073003;28;20414;-92
2022/03/22 11:55:03;;;;;;;12.07;11.07;;;;;;;;;;5072829;28;20486;-87
2022/03/22 11:57:46;;;;;;;12.17;11.07;;;;;;;;;;5073944;28;20490;-88
2022/03/22 12:00:14;;;;;;;13.87;12.67;;;;;;;;;;5073564;28;20423;-88
2022/03/22 12:02:42;;;;;;;13.13;12.03;;;;;;;;;;5072251;28;20918;-91
2022/03/22 12:05:09;;;;;;;13.67;12.37;;;;;;;;;;5071835;28;20455;-93
2022/03/22 12:07:39;;;;;;;13.83;12.33;;;;;;;;;;5072263;28;20486;-92
2022/03/22 12:10:13;;;;;;;12.67;11.60;;;;;;;;;;5073481;28;20403;-91
2022/03/22 12:12:41;;;;;;;13.47;12.20;;;;;;;;;;5073317;28;20413;-93
2022/03/22 12:15:08;;;;;;;12.63;11.43;;;;;;;;;;5072949;28;20415;-90
2022/03/22 12:17:34;;;;;;;13.47;12.17;;;;;;;;;;5072978;28;20755;-92
2022/03/22 12:20:01;;;;;;;13.47;12.20;;;;;;;;;;5072230;28;20463;-90
2022/03/22 12:22:28;;;;;;;11.70;10.70;;;;;;;;;;5072817;28;20414;-90
2022/03/22 12:24:56;;;;;;;10.70;9.70;;;;;;;;;;5071235;28;20492;-86
2022/03/22 12:27:23;;;;;;;11.60;10.60;;;;;;;;;;5072570;28;20772;-88
2022/03/22 12:29:49;;;;;;;13.47;12.27;;;;;;;;;;5072478;28;20496;-88
2022/03/22 12:32:19;;;;;;;11.50;10.50;;;;;;;;;;5071294;28;20441;-87
2022/03/22 12:34:46;;;;;;;10.43;9.53;;;;;;;;;;5073083;28;20387;-89
2022/03/22 12:37:13;;;;;;;11.03;9.97;;;;;;;;;;5076112;28;20407;-89
2022/03/22 12:39:41;;;;;;;11.00;9.73;;;;;;;;;;5076010;28;20467;-90
2022/03/22 12:42:07;;;;;;;10.27;9.27;;;;;;;;;;5075982;28;20506;-87
2022/03/22 12:44:33;;;;;;;10.87;9.77;;;;;;;;;;5076225;28;20466;-90
2022/03/22 12:47:00;;;;;;;9.30;8.40;;;;;;;;;;5076378;28;20422;-90
2022/03/22 12:49:27;;;;;;;8.90;8.10;;;;;;;;;;5074278;28;20407;-90
2022/03/22 12:51:53;;;;;;;8.03;7.33;;;;;;;;;;5075867;28;20415;-89
2022/03/22 12:54:19;;;;;;;9.93;9.07;;;;;;;;;;5075844;28;20449;-92
2022/03/22 12:56:47;;;;;;;7.73;7.07;;;;;;;;;;5076225;28;20174;-88
2022/03/22 12:59:20;;;;;;;9.13;8.23;;;;;;;;;;5075802;28;20993;-91
2022/03/22 13:01:45;;;;;;;9.00;8.20;;;;;;;;;;5075618;28;20906;-88
2022/03/22 13:04:11;;;;;;;9.27;8.37;;;;;;;;;;5075535;28;20476;-91
2022/03/22 13:06:37;;;;;;;8.60;7.80;;;;;;;;;;5074757;28;20208;-92
2022/03/22 13:11:48;;;;;;;10.17;9.27;;;;;;;;;;5077028;28;20508;-93
2022/03/22 13:16:59;;;;;;;12.13;10.97;;;;;;;;;;5078258;28;20418;-93
2022/03/22 13:19:32;;;;;;;9.77;8.87;;;;;;;;;;5076880;28;20486;-93
2022/03/22 13:21:58;;;;;;;10.63;9.73;;;;;;;;;;5076969;28;20411;-92
2022/03/22 13:24:26;;;;;;;12.77;11.57;;;;;;;;;;5076933;28;20411;-92
2022/03/22 13:27:03;;;;;;;12.47;11.27;;;;;;;;;;5075942;28;20419;-88
2022/03/22 13:29:40;;;;;;;14.23;12.73;;;;;;;;;;5076893;28;20458;-89
2022/03/22 13:32:07;;;;;;;13.13;11.67;;;;;;;;;;5076718;28;20395;-91
2022/03/22 13:34:34;;;;;;;12.80;11.50;;;;;;;;;;5075631;28;20817;-91
2022/03/22 13:37:08;;;;;;;11.73;10.67;;;;;;;;;;5077369;28;20760;-87
2022/03/22 13:39:34;;;;;;;12.60;10.70;;;;;;;;;;5076405;28;21004;-88
2022/03/22 13:42:09;;;;;;;14.57;11.87;;;;;;;;;;5075133;28;20998;-92
2022/03/22 13:44:43;;;;;;;10.93;9.67;;;;;;;;;;5075553;28;20419;-91
2022/03/22 13:47:09;;;;;;;11.80;10.70;;;;;;;;;;5076333;28;20429;-92
2022/03/22 13:49:35;;;;;;;15.70;11.40;;;;;;;;;;5076761;28;20410;-91
2022/03/22 13:52:02;;;;;;;11.80;10.50;;;;;;;;;;5076570;28;20231;-90
2022/03/22 13:54:28;;;;;;;9.20;8.30;;;;;;;;;;5076794;28;20445;-92
2022/03/22 13:57:04;;;;;;;10.57;9.53;;;;;;;;;;5075738;28;20771;-93
2022/03/22 13:59:37;;;;;;;11.17;9.50;;;;;;;;;;5076051;28;20496;-92
2022/03/22 14:02:06;;;;;;;11.70;10.50;;;;;;;;;;5075854;28;20960;-92
2022/03/22 14:04:34;;;;;;;10.73;9.23;;;;;;;;;;5075588;28;20413;-89
2022/03/22 14:07:00;;;;;;;12.43;10.73;;;;;;;;;;5076481;28;20450;-92
2022/03/22 14:09:26;;;;;;;10.60;9.50;;;;;;;;;;5076113;28;20416;-90
2022/03/22 14:11:52;;;;;;;14.00;10.03;;;;;;;;;;5075807;28;20485;-91
2022/03/22 14:14:18;;;;;;;13.23;10.10;;;;;;;;;;5075825;28;20193;-92
2022/03/22 14:16:44;;;;;;;11.20;9.20;;;;;;;;;;5075087;28;20433;-92
2022/03/22 14:19:13;;;;;;;12.63;9.57;;;;;;;;;;5075765;28;20499;-92
2022/03/22 14:21:39;;;;;;;12.03;10.47;;;;;;;;;;5076141;28;20503;-92
2022/03/22 14:24:05;;;;;;;13.77;10.60;;;;;;;;;;5074643;28;20477;-90
2022/03/22 14:26:31;;;;;;;9.80;8.83;;;;;;;;;;5074097;28;20947;-89
2022/03/22 14:28:57;;;;;;;11.60;10.40;;;;;;;;;;5086731;28;20472;-92
2022/03/22 14:31:23;;;;;;;11.07;9.90;;;;;;;;;;5094465;28;20764;-88
2022/03/22 14:33:49;;;;;;;12.37;10.27;;;;;;;;;;5077707;28;20439;-88
2022/03/22 14:36:15;;;;;;;17.20;10.77;;;;;;;;;;5072751;28;20180;-91
2022/03/22 14:38:41;;;;;;;11.23;9.93;;;;;;;;;;5072277;28;20559;-89
2022/03/22 14:41:25;;;;;;;18.20;11.30;;;;;;;;;;5071886;28;20181;-88
2022/03/22 14:43:54;;;;;;;13.20;10.73;;;;;;;;;;5071713;28;20491;-88
2022/03/22 14:46:21;;;;;;;14.67;11.73;;;;;;;;;;5071319;28;20420;-87
2022/03/22 14:48:49;;;;;;;13.70;11.00;;;;;;;;;;5071226;28;20523;-88
2022/03/22 14:51:16;;;;;;;15.30;11.17;;;;;;;;;;5072686;28;20400;-87
2022/03/22 14:59:11;;;;;;;16.50;12.20;;;;;;;;;;5071956;28;20481;-91
2022/03/22 15:01:37;;;;;;;13.00;11.40;;;;;;;;;;5072403;28;20825;-91
2022/03/22 15:04:03;;;;;;;11.60;10.13;;;;;;;;;;5072652;28;20439;-89
2022/03/22 15:06:31;;;;;;;12.33;9.17;;;;;;;;;;5087426;28;20450;-88
2022/03/22 15:08:57;;;;;;;14.40;11.30;;;;;;;;;;5073309;28;20491;-93
2022/03/22 15:11:23;;;;;;;12.20;9.93;;;;;;;;;;5084204;28;20429;-92